Time;durP1;ratioP1;P1;durP2;ratioP2;P2;SDS_P1;SDS_P2;PMS_P1;PMS_P2;Temp;Humidity;BMP_temperature;BMP_pressure;BME280_temperature;BME280_humidity;BME280_pressure;Samples;Min_cycle;Max_cycle;Signal;HPM_P1;HPM_P2
2023/05/29 00:00:28;;;;;;;9.67;7.63;;;12.50;99.90;;;;;;4915815;29;20272;-76
2023/05/29 00:02:55;;;;;;;9.83;8.23;;;12.50;99.90;;;;;;4915678;29;20223;-76
2023/05/29 00:05:22;;;;;;;11.03;8.73;;;12.50;99.90;;;;;;4931524;29;20255;-76
2023/05/29 00:07:50;;;;;;;10.93;8.93;;;12.40;99.90;;;;;;4917337;29;20203;-76
2023/05/29 00:10:17;;;;;;;10.00;9.00;;;12.40;99.90;;;;;;4917521;29;20688;-76
2023/05/29 00:12:44;;;;;;;12.70;9.70;;;12.40;99.90;;;;;;4917479;29;20216;-76
2023/05/29 00:15:12;;;;;;;11.30;9.47;;;12.40;99.90;;;;;;4916487;29;20200;-77
2023/05/29 00:17:39;;;;;;;12.47;8.70;;;12.30;99.90;;;;;;4921017;29;20196;-77
2023/05/29 00:20:09;;;;;;;12.53;9.40;;;12.30;99.90;;;;;;4920973;29;20216;-77
2023/05/29 00:22:36;;;;;;;12.90;9.13;;;12.30;99.90;;;;;;4927421;29;20229;-77
2023/05/29 00:25:05;;;;;;;11.20;9.30;;;12.30;99.90;;;;;;4920711;29;20211;-77
2023/05/29 00:27:32;;;;;;;13.43;9.73;;;12.20;99.90;;;;;;4913238;29;20200;-77
2023/05/29 00:29:59;;;;;;;10.57;8.57;;;12.20;99.90;;;;;;4919741;29;20735;-77
2023/05/29 00:32:28;;;;;;;12.13;8.73;;;12.20;99.90;;;;;;4920884;29;20216;-77
2023/05/29 00:34:55;;;;;;;10.20;8.67;;;12.10;99.90;;;;;;4921154;29;20235;-78
2023/05/29 00:37:22;;;;;;;11.33;10.10;;;12.10;99.90;;;;;;4919176;29;20200;-76
2023/05/29 00:39:49;;;;;;;13.40;10.03;;;12.10;99.90;;;;;;4919816;29;20859;-76
2023/05/29 00:42:16;;;;;;;11.00;9.80;;;12.10;99.90;;;;;;4918911;29;20228;-77
2023/05/29 00:44:42;;;;;;;12.07;10.03;;;12.00;99.90;;;;;;4919506;29;20210;-77
2023/05/29 00:47:10;;;;;;;13.53;10.07;;;11.90;99.90;;;;;;4919144;29;20557;-77
2023/05/29 00:49:39;;;;;;;11.50;8.90;;;11.80;99.90;;;;;;4924783;29;20682;-76
2023/05/29 00:52:08;;;;;;;10.77;9.23;;;11.80;99.90;;;;;;4922349;29;20263;-76
2023/05/29 00:54:36;;;;;;;10.20;8.63;;;11.70;99.90;;;;;;4927718;29;20202;-76
2023/05/29 00:57:05;;;;;;;10.87;8.43;;;11.70;99.90;;;;;;4915470;29;20207;-77
2023/05/29 00:59:34;;;;;;;9.43;7.10;;;11.60;99.90;;;;;;4932358;29;20869;-76
2023/05/29 01:02:03;;;;;;;11.40;7.27;;;11.60;99.90;;;;;;4920796;29;20631;-76
2023/05/29 01:04:33;;;;;;;11.13;7.30;;;11.60;99.90;;;;;;4918886;29;20226;-77
2023/05/29 01:07:02;;;;;;;9.77;7.80;;;11.50;99.90;;;;;;4918673;29;20573;-76
2023/05/29 01:09:30;;;;;;;10.27;7.33;;;11.50;99.90;;;;;;4920294;29;20211;-76
2023/05/29 01:12:03;;;;;;;8.23;7.33;;;11.50;99.90;;;;;;4919305;29;20231;-76
2023/05/29 01:14:45;;;;;;;12.20;7.90;;;11.40;99.90;;;;;;4918493;29;20235;-76
2023/05/29 01:17:18;;;;;;;9.97;7.70;;;11.40;99.90;;;;;;4918183;29;20267;-76
2023/05/29 01:20:08;;;;;;;8.70;7.37;;;11.40;99.90;;;;;;4918537;29;20203;-77
2023/05/29 01:22:53;;;;;;;9.63;7.03;;;11.40;99.90;;;;;;4931223;29;20592;-76
2023/05/29 01:25:24;;;;;;;9.43;7.57;;;11.40;99.90;;;;;;4918462;29;20218;-76
2023/05/29 01:27:53;;;;;;;9.33;8.07;;;11.40;99.90;;;;;;4918623;29;20195;-77
2023/05/29 01:30:24;;;;;;;10.97;7.60;;;11.40;99.90;;;;;;4918229;29;20222;-76
2023/05/29 01:32:52;;;;;;;9.70;7.50;;;11.30;99.90;;;;;;4918157;29;20270;-76
2023/05/29 01:35:19;;;;;;;8.43;7.47;;;11.20;99.90;;;;;;4919251;29;20210;-76
2023/05/29 01:37:46;;;;;;;8.53;7.57;;;11.10;99.90;;;;;;4919681;29;20207;-76
2023/05/29 01:40:13;;;;;;;9.10;7.67;;;11.10;99.90;;;;;;4919843;29;20203;-76
2023/05/29 01:42:41;;;;;;;10.43;8.40;;;11.00;99.90;;;;;;4918931;29;20229;-76
2023/05/29 01:45:10;;;;;;;10.33;7.80;;;11.00;99.90;;;;;;4917949;29;20676;-77
2023/05/29 01:47:37;;;;;;;10.23;8.43;;;10.90;99.90;;;;;;4919515;29;20207;-77
2023/05/29 01:50:05;;;;;;;10.10;7.40;;;11.00;99.90;;;;;;4919435;29;20690;-76
2023/05/29 01:52:32;;;;;;;13.20;7.47;;;10.90;99.90;;;;;;4918585;29;20225;-76
2023/05/29 01:54:59;;;;;;;10.30;7.57;;;11.00;99.90;;;;;;4917822;29;20208;-77
2023/05/29 01:57:27;;;;;;;10.50;9.40;;;10.90;99.90;;;;;;4918378;29;20208;-76
2023/05/29 01:59:55;;;;;;;10.20;9.20;;;10.90;99.90;;;;;;4918230;29;20581;-76
2023/05/29 02:02:24;;;;;;;9.63;7.53;;;10.90;99.90;;;;;;4918001;29;20217;-77
2023/05/29 02:04:51;;;;;;;10.13;6.83;;;10.90;99.90;;;;;;4917932;29;20213;-76
2023/05/29 02:07:19;;;;;;;10.33;6.80;;;10.90;99.90;;;;;;4917382;29;20205;-77
2023/05/29 02:09:46;;;;;;;9.17;6.43;;;10.80;99.90;;;;;;4917126;29;20210;-76
2023/05/29 02:12:13;;;;;;;9.23;6.60;;;10.80;99.90;;;;;;4929733;29;20260;-76
2023/05/29 02:14:41;;;;;;;8.80;7.10;;;10.80;99.90;;;;;;4927333;29;20205;-76
2023/05/29 02:17:09;;;;;;;9.00;6.70;;;10.80;99.90;;;;;;4931787;29;20205;-76
2023/05/29 02:19:37;;;;;;;10.60;6.43;;;10.80;99.90;;;;;;4929022;29;20299;-76
2023/05/29 02:22:05;;;;;;;9.50;7.50;;;10.70;99.90;;;;;;4930111;29;20225;-77
2023/05/29 02:24:32;;;;;;;9.83;7.70;;;10.70;99.90;;;;;;4918597;29;20936;-76
2023/05/29 02:27:00;;;;;;;10.03;7.40;;;10.70;99.90;;;;;;4917289;29;20582;-76
2023/05/29 02:29:27;;;;;;;8.50;6.97;;;10.70;99.90;;;;;;4916473;29;20203;-76
2023/05/29 02:31:55;;;;;;;11.70;7.60;;;10.70;99.90;;;;;;4916673;29;20202;-76
2023/05/29 02:34:22;;;;;;;10.43;7.73;;;10.60;99.90;;;;;;4916277;29;20931;-78
2023/05/29 02:36:51;;;;;;;9.83;8.20;;;10.60;99.90;;;;;;4917432;29;20692;-78
2023/05/29 02:39:18;;;;;;;9.33;6.83;;;10.60;99.90;;;;;;4918730;29;20211;-78
2023/05/29 02:41:45;;;;;;;8.70;7.80;;;10.60;99.90;;;;;;4917390;29;20205;-76
2023/05/29 02:44:15;;;;;;;10.00;7.67;;;10.50;99.90;;;;;;4915753;29;20272;-81
2023/05/29 02:46:42;;;;;;;9.03;7.93;;;10.50;99.90;;;;;;4915903;29;20201;-79
2023/05/29 02:49:09;;;;;;;8.30;7.30;;;10.50;99.90;;;;;;4915224;29;20288;-76
2023/05/29 02:51:36;;;;;;;8.23;7.33;;;10.40;99.90;;;;;;4923752;29;20208;-77
2023/05/29 02:54:05;;;;;;;8.97;8.03;;;10.40;99.90;;;;;;4923429;29;20215;-79
2023/05/29 02:56:32;;;;;;;11.87;8.83;;;10.40;99.90;;;;;;4918018;29;20213;-76
2023/05/29 02:59:00;;;;;;;13.20;9.20;;;10.40;99.90;;;;;;4923028;29;20200;-77
2023/05/29 03:01:27;;;;;;;11.57;9.50;;;10.40;99.90;;;;;;4924606;29;20488;-77
2023/05/29 03:06:10;;;;;;;10.70;9.30;;;10.40;99.90;;;;;;5116066;27;20543;-78
2023/05/29 03:08:39;;;;;;;10.67;9.57;;;10.30;99.90;;;;;;5100650;28;20269;-78
2023/05/29 03:11:06;;;;;;;9.90;8.83;;;10.30;99.90;;;;;;5092733;28;20747;-77
2023/05/29 03:13:34;;;;;;;14.40;9.23;;;10.20;99.90;;;;;;5087242;28;20234;-77
2023/05/29 03:16:06;;;;;;;14.17;9.37;;;10.20;99.90;;;;;;5086009;28;20254;-77
2023/05/29 03:18:32;;;;;;;13.27;9.23;;;10.20;99.90;;;;;;5090368;28;20257;-77
2023/05/29 03:21:01;;;;;;;10.10;8.80;;;10.10;99.90;;;;;;5087465;28;20216;-78
2023/05/29 03:23:30;;;;;;;10.87;9.33;;;10.20;99.90;;;;;;5083979;28;20218;-77
2023/05/29 03:25:56;;;;;;;8.90;7.57;;;10.10;99.90;;;;;;5082022;28;20575;-77
2023/05/29 03:28:24;;;;;;;10.67;8.17;;;10.10;99.90;;;;;;5088335;28;20221;-77
2023/05/29 03:30:52;;;;;;;12.43;8.63;;;10.10;99.90;;;;;;5088487;28;20207;-77
2023/05/29 03:33:21;;;;;;;10.23;8.60;;;10.20;99.90;;;;;;5087698;28;20233;-77
2023/05/29 03:36:09;;;;;;;10.43;8.23;;;10.10;99.90;;;;;;5083657;28;20249;-77
2023/05/29 03:38:37;;;;;;;9.50;8.50;;;10.10;99.90;;;;;;5088347;28;20584;-77
2023/05/29 03:41:04;;;;;;;10.70;8.43;;;10.10;99.90;;;;;;5085785;28;20202;-77
2023/05/29 03:43:31;;;;;;;9.27;7.20;;;10.20;99.90;;;;;;5085966;28;20210;-77
2023/05/29 03:45:58;;;;;;;9.67;7.70;;;10.10;99.90;;;;;;5078316;28;20233;-77
2023/05/29 03:48:28;;;;;;;11.53;7.77;;;10.10;99.90;;;;;;5084756;28;20190;-77
2023/05/29 03:50:55;;;;;;;8.60;6.67;;;10.20;99.90;;;;;;5089300;28;20266;-77
2023/05/29 03:53:28;;;;;;;9.97;7.80;;;10.20;99.90;;;;;;5087884;28;20586;-77
2023/05/29 03:55:56;;;;;;;9.80;6.90;;;10.20;99.90;;;;;;5086734;28;20286;-78
2023/05/29 03:58:23;;;;;;;8.03;6.80;;;10.20;99.90;;;;;;5085963;28;20194;-77
2023/05/29 04:00:53;;;;;;;8.70;7.53;;;10.30;99.90;;;;;;5091217;28;20735;-79
2023/05/29 04:03:21;;;;;;;11.63;6.73;;;10.30;99.90;;;;;;5098511;28;20223;-78
2023/05/29 04:05:48;;;;;;;9.37;7.70;;;10.30;99.90;;;;;;5080404;28;20719;-80
2023/05/29 04:08:15;;;;;;;9.87;7.23;;;10.40;99.90;;;;;;5087829;28;20205;-79
2023/05/29 04:10:43;;;;;;;8.67;6.90;;;10.40;99.90;;;;;;5083579;28;20611;-79
2023/05/29 04:13:11;;;;;;;11.47;6.87;;;10.40;99.90;;;;;;5084827;28;20300;-80
2023/05/29 04:15:39;;;;;;;9.43;7.70;;;10.50;99.90;;;;;;5067922;28;20192;-77
2023/05/29 04:18:06;;;;;;;7.57;6.60;;;10.50;99.90;;;;;;5068158;28;20270;-79
2023/05/29 04:20:34;;;;;;;8.57;6.87;;;10.60;99.90;;;;;;5074993;28;20198;-80
2023/05/29 04:23:00;;;;;;;10.50;7.53;;;10.70;99.90;;;;;;5069801;28;20259;-79
2023/05/29 04:25:27;;;;;;;10.30;6.73;;;10.70;99.90;;;;;;5057178;28;20223;-79
2023/05/29 04:27:54;;;;;;;7.50;6.07;;;10.90;99.90;;;;;;5068301;28;20727;-79
2023/05/29 04:30:24;;;;;;;11.00;7.10;;;11.00;99.90;;;;;;5060560;28;20294;-79
2023/05/29 04:32:51;;;;;;;8.37;6.20;;;11.00;99.90;;;;;;5074440;28;20590;-81
2023/05/29 04:35:19;;;;;;;10.10;6.53;;;11.20;99.90;;;;;;5065675;28;20201;-79
2023/05/29 04:37:57;;;;;;;8.73;6.57;;;11.30;99.90;;;;;;5074065;28;20299;-80
2023/05/29 04:40:27;;;;;;;8.93;6.53;;;11.40;99.90;;;;;;5065555;28;20246;-79
2023/05/29 04:42:54;;;;;;;8.37;6.20;;;11.50;99.90;;;;;;5073776;28;20227;-78
2023/05/29 04:45:25;;;;;;;10.17;6.07;;;11.70;99.90;;;;;;5063904;28;20221;-79
2023/05/29 04:47:54;;;;;;;10.17;6.43;;;12.00;99.90;;;;;;5074362;28;20641;-80
2023/05/29 04:50:23;;;;;;;7.97;5.77;;;12.10;99.90;;;;;;5065340;28;20329;-79
2023/05/29 04:52:50;;;;;;;6.40;5.20;;;12.40;99.90;;;;;;5063372;28;20660;-80
2023/05/29 04:55:17;;;;;;;10.87;6.63;;;12.70;99.90;;;;;;5065831;28;20202;-79
2023/05/29 04:57:44;;;;;;;7.17;6.00;;;12.90;99.90;;;;;;5065034;28;20198;-79
2023/05/29 05:00:14;;;;;;;10.13;6.10;;;13.00;99.90;;;;;;5074260;28;20611;-79
2023/05/29 05:02:43;;;;;;;7.87;5.90;;;13.20;99.90;;;;;;5074040;28;20224;-79
2023/05/29 05:05:11;;;;;;;8.03;5.93;;;13.40;99.90;;;;;;5073688;28;20222;-79
2023/05/29 05:07:38;;;;;;;9.20;6.50;;;13.50;99.90;;;;;;5068755;28;20257;-80
2023/05/29 05:10:06;;;;;;;10.23;6.87;;;13.60;99.90;;;;;;5067263;28;20226;-80
2023/05/29 05:12:34;;;;;;;8.13;6.20;;;13.80;99.90;;;;;;5068881;28;20644;-80
2023/05/29 05:15:03;;;;;;;7.93;6.03;;;13.80;99.90;;;;;;5072829;28;20239;-80
2023/05/29 05:17:30;;;;;;;8.47;6.10;;;13.90;99.90;;;;;;5076288;28;20683;-81
2023/05/29 05:19:58;;;;;;;9.67;6.03;;;14.20;99.90;;;;;;5070027;28;20669;-80
2023/05/29 05:22:26;;;;;;;7.97;6.03;;;14.30;99.90;;;;;;5073767;28;20300;-80
2023/05/29 05:24:54;;;;;;;6.70;5.70;;;14.50;99.90;;;;;;5065849;28;20216;-78
2023/05/29 05:27:21;;;;;;;8.37;6.53;;;14.70;99.90;;;;;;5066505;28;20306;-78
2023/05/29 05:29:47;;;;;;;10.00;6.70;;;14.70;99.90;;;;;;5065537;28;20203;-84
2023/05/29 05:32:15;;;;;;;10.37;5.90;;;14.80;99.90;;;;;;5063280;28;20211;-81
2023/05/29 05:34:42;;;;;;;8.27;6.23;;;14.90;99.90;;;;;;5065991;28;20685;-81
2023/05/29 05:37:10;;;;;;;7.93;6.20;;;15.00;99.90;;;;;;5068306;28;20260;-80
2023/05/29 05:39:40;;;;;;;8.53;5.80;;;15.10;99.90;;;;;;5066547;28;20222;-80
2023/05/29 05:42:07;;;;;;;9.03;6.23;;;15.30;99.90;;;;;;5063386;28;20202;-80
2023/05/29 05:44:49;;;;;;;9.67;6.13;;;15.70;99.90;;;;;;5064640;28;20309;-80
2023/05/29 05:47:16;;;;;;;11.40;6.37;;;16.40;99.90;;;;;;5061253;28;20585;-80
2023/05/29 05:49:43;;;;;;;9.10;6.63;;;17.00;99.90;;;;;;5073176;28;20670;-81
2023/05/29 05:52:12;;;;;;;9.73;6.77;;;17.50;99.90;;;;;;5077876;28;20203;-81
2023/05/29 05:54:40;;;;;;;10.73;6.50;;;17.90;99.90;;;;;;5072847;28;20193;-81
2023/05/29 05:57:07;;;;;;;8.53;5.67;;;18.30;99.90;;;;;;5063332;28;20226;-81
2023/05/29 05:59:36;;;;;;;8.63;5.93;;;18.70;99.90;;;;;;5070720;28;20206;-80
2023/05/29 06:02:05;;;;;;;6.60;5.47;;;19.10;99.90;;;;;;5067548;28;20226;-81
2023/05/29 06:04:31;;;;;;;8.90;6.20;;;19.60;99.90;;;;;;5072151;28;20611;-80
2023/05/29 06:06:59;;;;;;;6.47;5.20;;;19.90;99.90;;;;;;5073124;28;20203;-80
2023/05/29 06:09:27;;;;;;;8.53;6.43;;;20.20;99.90;;;;;;5073911;28;20563;-80
2023/05/29 06:11:56;;;;;;;7.93;5.43;;;20.30;99.90;;;;;;5073104;28;20263;-80
2023/05/29 06:14:24;;;;;;;8.10;5.83;;;20.20;99.90;;;;;;5072503;28;20293;-80
2023/05/29 06:16:52;;;;;;;8.77;5.70;;;20.00;99.90;;;;;;5072692;28;20661;-80
2023/05/29 06:19:19;;;;;;;7.50;5.60;;;19.90;99.90;;;;;;5062090;28;20553;-80
2023/05/29 06:21:56;;;;;;;7.60;5.60;;;20.00;99.90;;;;;;5067322;28;20256;-80
2023/05/29 06:24:23;;;;;;;8.73;6.20;;;20.20;99.90;;;;;;5069105;28;20218;-80
2023/05/29 06:26:51;;;;;;;8.23;5.63;;;20.30;99.90;;;;;;5071937;28;20190;-82
2023/05/29 06:29:19;;;;;;;7.60;5.47;;;20.50;99.90;;;;;;5059862;28;20731;-81
2023/05/29 06:31:46;;;;;;;7.87;5.43;;;20.90;99.90;;;;;;5076500;28;20217;-80
2023/05/29 06:34:13;;;;;;;8.87;5.50;;;21.20;99.90;;;;;;5063710;28;20218;-80
2023/05/29 06:36:41;;;;;;;8.23;5.87;;;21.30;99.90;;;;;;5071931;28;20244;-81
2023/05/29 06:39:08;;;;;;;7.83;5.03;;;21.60;99.90;;;;;;5073502;28;20237;-81
2023/05/29 06:41:35;;;;;;;7.50;5.53;;;21.80;99.90;;;;;;5072248;28;20195;-80
2023/05/29 06:44:03;;;;;;;6.77;5.43;;;21.70;99.90;;;;;;5077167;28;20232;-82
2023/05/29 06:46:30;;;;;;;8.90;5.73;;;21.50;99.90;;;;;;5062622;28;20195;-81
2023/05/29 06:48:57;;;;;;;6.97;5.37;;;21.80;99.90;;;;;;5069295;28;20199;-81
2023/05/29 06:51:24;;;;;;;5.93;5.07;;;21.70;99.90;;;;;;5063814;28;20669;-82
2023/05/29 06:53:57;;;;;;;8.53;4.87;;;22.00;99.90;;;;;;5068063;28;20700;-81
2023/05/29 06:56:25;;;;;;;7.53;5.27;;;22.40;99.90;;;;;;5071774;28;20328;-79
2023/05/29 06:58:53;;;;;;;9.47;5.67;;;22.50;99.90;;;;;;5071521;28;20206;-82
2023/05/29 07:01:21;;;;;;;9.63;5.70;;;22.70;99.90;;;;;;5069713;28;20199;-82
2023/05/29 07:04:14;;;;;;;7.57;5.07;;;22.70;99.90;;;;;;5070564;28;20320;-81
2023/05/29 07:06:41;;;;;;;6.73;5.13;;;23.10;99.90;;;;;;5069844;28;20683;-82
2023/05/29 07:09:08;;;;;;;8.57;5.70;;;23.00;99.90;;;;;;5072466;28;20301;-81
2023/05/29 07:11:35;;;;;;;8.13;5.77;;;23.30;99.90;;;;;;5070420;28;20668;-82
2023/05/29 07:14:02;;;;;;;8.17;5.57;;;23.10;99.90;;;;;;5061312;28;20582;-81
2023/05/29 07:16:30;;;;;;;9.13;6.43;;;23.00;99.90;;;;;;5068413;28;20265;-80
2023/05/29 07:19:01;;;;;;;7.77;5.70;;;23.30;99.90;;;;;;5067365;28;20688;-81
2023/05/29 07:21:31;;;;;;;7.53;5.90;;;23.40;99.90;;;;;;5069950;28;20203;-79
2023/05/29 07:23:58;;;;;;;9.27;5.97;;;23.40;99.90;;;;;;5064675;28;20237;-78
2023/05/29 07:26:25;;;;;;;8.60;5.73;;;23.40;99.90;;;;;;5073282;28;20187;-78
2023/05/29 07:28:52;;;;;;;7.43;5.20;;;23.60;99.90;;;;;;5068418;28;20205;-78
2023/05/29 07:31:19;;;;;;;7.67;5.23;;;23.90;99.90;;;;;;5069080;28;20281;-78
2023/05/29 07:33:49;;;;;;;9.47;5.60;;;24.10;99.90;;;;;;5073579;28;20275;-78
2023/05/29 07:36:17;;;;;;;7.57;5.33;;;24.30;99.90;;;;;;5065010;28;20225;-78
2023/05/29 07:38:46;;;;;;;9.57;5.77;;;24.00;99.90;;;;;;5064677;28;20190;-78
2023/05/29 07:41:17;;;;;;;8.10;6.40;;;24.10;99.90;;;;;;5062821;28;20199;-78
2023/05/29 07:43:52;;;;;;;8.13;5.47;;;24.00;99.90;;;;;;5070189;28;20321;-78
2023/05/29 07:46:19;;;;;;;9.17;5.50;;;24.30;99.90;;;;;;5065463;28;20192;-77
2023/05/29 07:48:50;;;;;;;8.33;5.87;;;24.20;99.90;;;;;;5068997;28;20195;-78
2023/05/29 07:51:19;;;;;;;7.93;5.50;;;24.60;99.90;;;;;;5074245;28;20226;-78
2023/05/29 07:53:47;;;;;;;7.17;5.50;;;24.70;99.90;;;;;;5068075;28;20210;-78
2023/05/29 07:56:16;;;;;;;7.63;5.57;;;24.60;99.90;;;;;;5073840;28;20214;-78
2023/05/29 07:58:43;;;;;;;8.97;5.87;;;24.80;99.90;;;;;;5076851;28;20195;-78
2023/05/29 08:01:11;;;;;;;7.20;5.43;;;24.60;99.90;;;;;;5077257;28;20194;-78
2023/05/29 08:03:38;;;;;;;9.33;5.70;;;24.50;99.90;;;;;;5077025;28;20280;-78
2023/05/29 08:06:18;;;;;;;7.13;5.13;;;24.60;99.90;;;;;;5077696;28;20208;-77
2023/05/29 08:08:46;;;;;;;10.10;5.30;;;24.80;99.90;;;;;;5074404;28;20256;-77
2023/05/29 08:11:13;;;;;;;9.43;5.40;;;24.90;99.90;;;;;;5074415;28;20202;-77
2023/05/29 08:13:41;;;;;;;7.57;5.03;;;24.80;99.90;;;;;;5073733;28;20214;-77
2023/05/29 08:16:08;;;;;;;6.80;5.10;;;24.90;99.90;;;;;;5075370;28;20211;-77
2023/05/29 08:18:35;;;;;;;7.23;5.20;;;24.60;99.90;;;;;;5073759;28;20194;-77
2023/05/29 08:21:02;;;;;;;6.00;5.40;;;24.90;99.90;;;;;;5060085;28;20571;-77
2023/05/29 08:23:31;;;;;;;8.80;5.27;;;24.80;99.90;;;;;;5063599;28;20297;-77
2023/05/29 08:25:58;;;;;;;8.10;5.10;;;24.90;99.90;;;;;;5062371;28;20205;-77
2023/05/29 08:28:26;;;;;;;7.03;4.83;;;24.50;99.90;;;;;;5070780;28;20194;-77
2023/05/29 08:30:53;;;;;;;7.03;4.77;;;24.70;99.90;;;;;;5067404;28;20211;-77
2023/05/29 08:33:19;;;;;;;9.53;5.80;;;25.20;99.90;;;;;;5059650;28;20264;-77
2023/05/29 08:35:46;;;;;;;6.90;5.23;;;25.30;99.90;;;;;;5058691;28;20215;-77
2023/05/29 08:38:13;;;;;;;9.53;5.90;;;25.20;99.90;;;;;;5070241;28;20195;-77
2023/05/29 08:40:41;;;;;;;8.50;5.60;;;25.10;99.90;;;;;;5064158;28;20199;-77
2023/05/29 08:43:16;;;;;;;7.77;5.77;;;25.20;99.90;;;;;;5060069;28;20211;-77
2023/05/29 08:45:44;;;;;;;9.33;7.30;;;25.40;99.90;;;;;;5057601;28;20231;-77
2023/05/29 08:48:12;;;;;;;10.40;8.47;;;24.90;99.90;;;;;;5063187;28;20199;-77
2023/05/29 08:50:46;;;;;;;8.67;7.77;;;24.80;99.90;;;;;;5058327;28;20278;-77
2023/05/29 08:53:14;;;;;;;6.37;5.40;;;25.30;99.90;;;;;;5060319;28;20218;-77
2023/05/29 08:55:42;;;;;;;11.07;8.53;;;25.90;99.90;;;;;;5061662;28;20210;-77
2023/05/29 08:58:10;;;;;;;7.50;6.50;;;25.90;99.90;;;;;;5057948;28;20244;-77
2023/05/29 09:00:37;;;;;;;9.80;8.80;;;26.40;99.90;;;;;;5060910;28;20194;-77
2023/05/29 09:03:04;;;;;;;8.57;7.77;;;26.30;99.90;;;;;;5056324;28;20238;-77
2023/05/29 09:05:31;;;;;;;10.10;9.10;;;26.70;99.90;;;;;;5072895;28;20210;-80
2023/05/29 09:07:58;;;;;;;10.47;8.27;;;26.40;99.90;;;;;;5065313;28;20197;-83
2023/05/29 09:10:26;;;;;;;8.57;7.30;;;26.00;99.90;;;;;;5061532;28;20206;-78
2023/05/29 09:12:54;;;;;;;7.70;5.67;;;26.20;99.90;;;;;;5061910;28;20575;-80
2023/05/29 09:15:22;;;;;;;7.50;5.40;;;26.70;99.90;;;;;;5056493;28;20195;-80
2023/05/29 09:17:53;;;;;;;8.47;5.30;;;26.90;99.90;;;;;;5060209;28;20217;-81
2023/05/29 09:20:23;;;;;;;7.80;5.40;;;27.10;99.90;;;;;;5059178;28;20237;-79
2023/05/29 09:22:57;;;;;;;7.30;5.10;;;27.40;99.90;;;;;;5064398;28;20218;-81
2023/05/29 09:25:26;;;;;;;6.63;5.10;;;27.20;99.90;;;;;;5058371;28;20257;-81
2023/05/29 09:27:56;;;;;;;6.23;4.93;;;27.40;99.90;;;;;;5074063;28;20218;-81
2023/05/29 09:30:35;;;;;;;9.73;5.97;;;27.60;99.90;;;;;;5071747;28;20232;-81
2023/05/29 09:33:03;;;;;;;7.10;5.20;;;27.20;99.30;;;;;;5075691;28;20221;-81
2023/05/29 09:35:37;;;;;;;9.00;4.93;;;27.00;99.90;;;;;;5074372;28;20249;-81
2023/05/29 09:38:05;;;;;;;7.47;5.40;;;27.20;99.90;;;;;;5064948;28;20211;-81
2023/05/29 09:40:33;;;;;;;6.73;5.60;;;27.30;99.90;;;;;;5074226;28;20198;-80
2023/05/29 09:43:11;;;;;;;9.20;5.93;;;27.30;99.30;;;;;;5072026;28;20302;-81
2023/05/29 09:45:39;;;;;;;9.53;6.37;;;27.10;99.90;;;;;;5065235;28;20547;-80
2023/05/29 09:48:07;;;;;;;9.00;6.17;;;27.40;99.90;;;;;;5075978;28;20190;-82
2023/05/29 09:50:35;;;;;;;8.33;5.43;;;27.20;98.40;;;;;;5065485;28;20203;-81
2023/05/29 09:53:03;;;;;;;8.70;5.10;;;27.10;98.70;;;;;;5074664;28;20272;-81
2023/05/29 09:55:31;;;;;;;7.70;5.47;;;27.20;99.10;;;;;;5076198;28;20277;-82
2023/05/29 09:58:00;;;;;;;7.40;5.53;;;27.10;99.60;;;;;;5074182;28;20231;-80
2023/05/29 10:00:29;;;;;;;8.90;7.83;;;26.90;97.60;;;;;;5071264;28;20194;-81
2023/05/29 10:02:56;;;;;;;7.93;5.10;;;27.20;99.80;;;;;;5069917;28;20250;-81
2023/05/29 10:05:22;;;;;;;7.50;5.03;;;27.50;99.90;;;;;;5064080;28;20237;-81
2023/05/29 10:07:54;;;;;;;5.80;4.70;;;27.80;97.10;;;;;;5074574;28;20198;-81
2023/05/29 10:10:24;;;;;;;8.47;5.50;;;27.20;97.20;;;;;;5074224;28;20198;-81
2023/05/29 10:12:51;;;;;;;8.23;7.43;;;26.70;97.60;;;;;;5072016;28;20267;-81
2023/05/29 10:15:21;;;;;;;8.50;6.50;;;26.90;98.40;;;;;;5073290;28;20199;-81
2023/05/29 10:18:00;;;;;;;9.00;8.10;;;26.50;96.60;;;;;;5070748;28;20203;-81
2023/05/29 10:20:29;;;;;;;7.87;6.40;;;26.20;97.50;;;;;;5064622;28;20190;-81
2023/05/29 10:22:57;;;;;;;6.27;5.63;;;25.70;98.70;;;;;;5061137;28;20599;-81
2023/05/29 10:25:28;;;;;;;7.10;5.30;;;26.20;99.90;;;;;;5063987;28;20202;-82
2023/05/29 10:27:56;;;;;;;6.57;4.97;;;26.50;99.50;;;;;;5059956;28;20199;-81
2023/05/29 10:30:31;;;;;;;8.67;7.77;;;26.40;97.80;;;;;;5064252;28;20199;-82
2023/05/29 10:33:11;;;;;;;6.40;5.10;;;26.30;98.70;;;;;;5071349;28;20722;-81
2023/05/29 10:35:45;;;;;;;12.73;7.43;;;26.40;98.20;;;;;;5072461;28;20202;-81
2023/05/29 10:38:15;;;;;;;8.83;6.27;;;26.30;97.30;;;;;;5071434;28;20218;-82
2023/05/29 10:40:41;;;;;;;8.07;6.57;;;26.20;97.50;;;;;;5073776;28;20191;-81
2023/05/29 10:43:11;;;;;;;10.23;8.03;;;26.30;97.40;;;;;;5076168;28;20214;-82
2023/05/29 10:45:51;;;;;;;8.87;7.97;;;26.20;97.50;;;;;;5072239;28;20199;-81
2023/05/29 10:48:45;;;;;;;7.67;6.53;;;26.20;97.50;;;;;;5073136;28;20195;-81
2023/05/29 10:51:31;;;;;;;8.20;7.40;;;26.10;98.70;;;;;;5067473;28;20261;-81
2023/05/29 10:53:57;;;;;;;8.03;7.20;;;26.20;96.80;;;;;;5066576;28;20595;-81
2023/05/29 10:56:29;;;;;;;11.30;6.97;;;26.00;97.30;;;;;;5064780;28;22550;-81
2023/05/29 10:59:00;;;;;;;9.43;6.30;;;25.50;97.40;;;;;;5066675;28;20206;-82
2023/05/29 11:01:29;;;;;;;8.97;6.73;;;25.40;97.30;;;;;;5071423;28;20202;-81
2023/05/29 11:04:26;;;;;;;8.10;6.67;;;25.30;97.60;;;;;;5073098;28;20222;-81
2023/05/29 11:06:54;;;;;;;6.13;4.33;;;25.30;97.60;;;;;;5061247;28;20215;-82
2023/05/29 11:09:29;;;;;;;8.23;6.47;;;25.50;97.30;;;;;;5066373;28;20198;-81
2023/05/29 11:12:25;;;;;;;7.33;6.40;;;25.50;97.70;;;;;;5072216;28;20225;-81
2023/05/29 11:14:57;;;;;;;7.50;6.70;;;25.70;96.90;;;;;;5063711;28;20665;-81
2023/05/29 11:17:43;;;;;;;8.20;7.40;;;25.80;96.20;;;;;;5073722;28;20680;-81
2023/05/29 11:20:21;;;;;;;8.00;7.20;;;25.60;97.40;;;;;;5073155;28;20187;-81
2023/05/29 11:23:01;;;;;;;8.23;7.37;;;25.70;95.60;;;;;;5072458;28;20221;-81
2023/05/29 11:25:28;;;;;;;8.00;7.30;;;25.50;95.60;;;;;;5067033;28;20198;-82
2023/05/29 11:27:56;;;;;;;6.93;4.20;;;25.20;96.10;;;;;;5075785;28;20228;-78
2023/05/29 11:30:23;;;;;;;6.30;4.33;;;25.30;96.10;;;;;;5072426;28;20258;-82
2023/05/29 11:32:52;;;;;;;9.07;6.97;;;25.40;95.10;;;;;;5071759;28;20596;-82
2023/05/29 11:35:22;;;;;;;5.53;3.90;;;25.20;96.30;;;;;;5064003;28;20190;-82
2023/05/29 11:37:50;;;;;;;15.60;7.40;;;25.10;96.50;;;;;;5071486;28;20341;-82
2023/05/29 11:40:19;;;;;;;8.73;7.83;;;24.90;95.80;;;;;;5075834;28;20217;-82
2023/05/29 11:42:48;;;;;;;10.63;6.93;;;24.80;97.90;;;;;;5075506;28;20222;-82
2023/05/29 11:45:16;;;;;;;6.40;4.30;;;25.00;96.60;;;;;;5070515;28;20202;-82
2023/05/29 11:48:02;;;;;;;5.60;4.33;;;25.00;96.60;;;;;;5074303;28;20574;-82
2023/05/29 11:50:32;;;;;;;8.77;4.63;;;25.10;95.70;;;;;;5071808;28;20222;-82
2023/05/29 11:53:00;;;;;;;7.10;5.90;;;24.70;94.30;;;;;;5073595;28;20309;-82
2023/05/29 11:55:28;;;;;;;7.40;6.50;;;24.80;94.90;;;;;;5061774;28;20194;-82
2023/05/29 11:57:58;;;;;;;8.57;7.67;;;24.90;94.50;;;;;;5067322;28;20242;-81
2023/05/29 12:00:25;;;;;;;6.83;4.93;;;24.90;95.20;;;;;;5070809;28;20285;-82
2023/05/29 12:02:52;;;;;;;7.17;4.60;;;24.80;95.40;;;;;;5076020;28;20222;-81
2023/05/29 12:05:19;;;;;;;7.93;7.13;;;24.70;94.50;;;;;;5072797;28;20237;-81
2023/05/29 12:07:52;;;;;;;6.50;5.80;;;24.70;95.00;;;;;;5074671;28;20194;-81
2023/05/29 12:10:21;;;;;;;7.40;5.43;;;24.60;94.60;;;;;;5078020;28;20218;-81
2023/05/29 12:12:49;;;;;;;5.13;3.80;;;24.60;94.40;;;;;;5073688;28;20214;-81
2023/05/29 12:15:17;;;;;;;7.40;5.33;;;24.60;94.50;;;;;;5075581;28;20198;-81
2023/05/29 12:17:44;;;;;;;6.83;6.10;;;24.80;95.10;;;;;;5078086;28;20198;-81
2023/05/29 12:20:13;;;;;;;8.23;5.43;;;24.70;94.80;;;;;;5071946;28;20199;-81
2023/05/29 12:22:41;;;;;;;6.43;5.33;;;24.70;92.60;;;;;;5062950;28;20240;-82
2023/05/29 12:25:11;;;;;;;5.73;4.20;;;24.60;92.00;;;;;;5077493;28;20259;-81
2023/05/29 12:27:42;;;;;;;5.13;3.93;;;24.60;92.80;;;;;;5066838;28;20211;-82
2023/05/29 12:30:11;;;;;;;7.87;4.70;;;24.80;93.50;;;;;;5067538;28;20265;-81
2023/05/29 12:32:38;;;;;;;5.13;3.87;;;24.80;90.80;;;;;;5077698;28;20211;-82
2023/05/29 12:35:17;;;;;;;4.63;3.80;;;24.60;90.40;;;;;;5072813;28;20669;-82
2023/05/29 12:37:49;;;;;;;6.90;4.50;;;24.60;90.80;;;;;;5069087;28;20221;-81
2023/05/29 12:40:19;;;;;;;6.37;4.37;;;24.60;90.70;;;;;;5065520;28;20205;-82
2023/05/29 12:42:47;;;;;;;5.73;4.23;;;24.50;90.10;;;;;;5068828;28;20245;-82
2023/05/29 12:45:14;;;;;;;7.87;4.23;;;24.40;89.90;;;;;;5069416;28;20479;-82
2023/05/29 12:47:51;;;;;;;7.43;4.00;;;24.30;90.10;;;;;;5072993;28;20550;-79
2023/05/29 12:50:25;;;;;;;7.07;3.80;;;24.30;91.50;;;;;;5068760;28;20198;-77
2023/05/29 12:52:56;;;;;;;6.37;4.17;;;24.30;91.80;;;;;;5067664;28;20250;-77
2023/05/29 12:55:25;;;;;;;6.10;4.00;;;24.40;92.10;;;;;;5065745;28;20199;-78